Time;durP1;ratioP1;P1;durP2;ratioP2;P2;SDS_P1;SDS_P2;PMS_P1;PMS_P2;Temp;Humidity;BMP_temperature;BMP_pressure;BME280_temperature;BME280_humidity;BME280_pressure;Samples;Min_cycle;Max_cycle;Signal;HPM_P1;HPM_P2
2024/01/12 00:04:20;;;;;;;22.35;13.27;;;;;;;;;;12976227;22;20371;-78
2024/01/12 00:09:24;;;;;;;22.60;12.75;;;;;;;;;;12977409;22;20367;-79
2024/01/12 00:14:26;;;;;;;19.65;12.25;;;;;;;;;;12978608;22;20420;-79
2024/01/12 00:19:28;;;;;;;23.10;13.00;;;;;;;;;;12977286;22;20437;-79
2024/01/12 00:24:32;;;;;;;22.42;12.48;;;;;;;;;;12978154;22;20432;-79
2024/01/12 00:29:34;;;;;;;22.35;12.93;;;;;;;;;;12977832;22;20363;-79
2024/01/12 00:34:37;;;;;;;23.13;12.70;;;;;;;;;;12976658;22;20363;-80
2024/01/12 00:39:40;;;;;;;23.05;14.00;;;;;;;;;;12982723;22;20379;-80
2024/01/12 00:44:43;;;;;;;24.42;14.25;;;;;;;;;;12979567;22;20383;-80
2024/01/12 00:49:45;;;;;;;27.38;14.63;;;;;;;;;;12978576;22;20367;-80
2024/01/12 00:54:49;;;;;;;27.92;15.80;;;;;;;;;;12977971;22;20371;-79
2024/01/12 00:59:51;;;;;;;26.50;15.38;;;;;;;;;;12977339;22;20692;-79
2024/01/12 01:04:55;;;;;;;29.15;17.27;;;;;;;;;;12977576;22;20416;-80
2024/01/12 01:09:58;;;;;;;32.47;17.65;;;;;;;;;;12978247;22;20420;-79
2024/01/12 01:15:01;;;;;;;32.22;17.83;;;;;;;;;;12976826;22;20908;-80
2024/01/12 01:20:03;;;;;;;32.65;18.10;;;;;;;;;;12975731;22;20374;-79
2024/01/12 01:25:07;;;;;;;35.00;18.92;;;;;;;;;;12976997;22;20379;-80
2024/01/12 01:30:11;;;;;;;37.85;20.02;;;;;;;;;;12968342;22;20405;-80
2024/01/12 01:35:13;;;;;;;38.50;20.98;;;;;;;;;;12970960;22;20371;-80
2024/01/12 01:40:17;;;;;;;36.10;19.73;;;;;;;;;;12974106;22;20740;-80
2024/01/12 01:45:20;;;;;;;33.97;19.00;;;;;;;;;;12972370;22;20456;-80
2024/01/12 01:50:22;;;;;;;32.13;18.80;;;;;;;;;;12973735;22;20442;-80
2024/01/12 01:55:27;;;;;;;35.55;19.38;;;;;;;;;;12979987;22;20425;-79
2024/01/12 02:00:31;;;;;;;35.83;19.38;;;;;;;;;;12981148;22;20893;-81
2024/01/12 02:05:36;;;;;;;32.10;19.00;;;;;;;;;;12981323;22;20432;-80
2024/01/12 02:10:40;;;;;;;34.40;18.85;;;;;;;;;;12980882;22;20428;-79
2024/01/12 02:15:42;;;;;;;35.20;19.73;;;;;;;;;;12980529;22;20440;-80
2024/01/12 02:20:47;;;;;;;35.28;19.55;;;;;;;;;;12979726;22;20436;-79
2024/01/12 02:25:52;;;;;;;35.55;19.65;;;;;;;;;;12980173;22;20859;-79
2024/01/12 02:30:54;;;;;;;35.30;18.98;;;;;;;;;;12980273;22;20359;-79
2024/01/12 02:35:56;;;;;;;33.15;19.20;;;;;;;;;;12981273;22;20433;-79
2024/01/12 02:41:00;;;;;;;33.05;19.05;;;;;;;;;;12977549;22;20367;-79
2024/01/12 02:46:02;;;;;;;30.60;18.08;;;;;;;;;;12977592;22;20382;-80
2024/01/12 02:51:05;;;;;;;32.85;19.08;;;;;;;;;;12977866;22;20441;-79
2024/01/12 02:56:11;;;;;;;32.13;20.00;;;;;;;;;;12980047;22;20443;-80
2024/01/12 03:01:13;;;;;;;32.40;17.98;;;;;;;;;;12979179;22;20405;-80
2024/01/12 03:06:15;;;;;;;33.53;19.13;;;;;;;;;;12978705;22;20414;-79
2024/01/12 03:11:19;;;;;;;32.17;18.35;;;;;;;;;;12979133;22;20444;-80
2024/01/12 03:16:22;;;;;;;36.88;19.88;;;;;;;;;;12978562;22;20432;-80
2024/01/12 03:21:24;;;;;;;32.42;17.65;;;;;;;;;;12977673;22;20428;-79
2024/01/12 03:26:28;;;;;;;31.63;17.47;;;;;;;;;;12977941;22;20382;-80
2024/01/12 03:31:30;;;;;;;28.60;16.90;;;;;;;;;;12980264;22;20440;-80
2024/01/12 03:36:32;;;;;;;31.52;17.33;;;;;;;;;;12977372;22;20374;-79
2024/01/12 03:41:36;;;;;;;28.90;16.50;;;;;;;;;;12975898;22;20354;-79
2024/01/12 03:46:39;;;;;;;31.07;17.30;;;;;;;;;;12977070;22;20421;-80
2024/01/12 03:51:43;;;;;;;28.58;16.38;;;;;;;;;;12977878;22;20416;-79
2024/01/12 03:56:47;;;;;;;30.67;16.63;;;;;;;;;;12998017;22;20394;-81
2024/01/12 04:01:49;;;;;;;30.75;16.25;;;;;;;;;;12976414;22;20366;-80
2024/01/12 04:06:52;;;;;;;29.23;16.27;;;;;;;;;;12977670;22;20456;-80
2024/01/12 04:11:55;;;;;;;26.83;15.55;;;;;;;;;;12977880;22;20424;-79
2024/01/12 04:16:58;;;;;;;29.08;16.52;;;;;;;;;;12977247;22;20362;-79
2024/01/12 04:22:01;;;;;;;26.23;16.35;;;;;;;;;;12977132;22;20425;-80
2024/01/12 04:27:05;;;;;;;29.73;17.17;;;;;;;;;;12979688;22;20464;-79
2024/01/12 04:32:07;;;;;;;29.63;16.60;;;;;;;;;;12977837;22;20367;-80
2024/01/12 04:37:09;;;;;;;30.50;17.05;;;;;;;;;;12977068;22;20904;-79
2024/01/12 04:42:13;;;;;;;28.40;16.05;;;;;;;;;;12976984;22;20362;-79
2024/01/12 04:47:15;;;;;;;26.95;15.82;;;;;;;;;;12977858;22;20452;-80
2024/01/12 04:52:18;;;;;;;28.33;16.38;;;;;;;;;;12977855;22;20370;-80
2024/01/12 04:57:21;;;;;;;28.53;16.40;;;;;;;;;;12976875;22;20363;-79
2024/01/12 05:02:24;;;;;;;27.77;14.82;;;;;;;;;;12977405;22;20679;-79
2024/01/12 05:07:26;;;;;;;22.63;12.55;;;;;;;;;;12976908;22;20383;-79
2024/01/12 05:12:30;;;;;;;23.05;13.38;;;;;;;;;;12977533;22;20370;-80
2024/01/12 05:17:32;;;;;;;20.50;11.90;;;;;;;;;;12978608;22;20371;-79
2024/01/12 05:22:35;;;;;;;23.48;12.00;;;;;;;;;;12978932;22;20371;-79
2024/01/12 05:27:39;;;;;;;19.17;11.00;;;;;;;;;;12977408;22;20435;-79
2024/01/12 05:32:41;;;;;;;18.25;10.50;;;;;;;;;;12979725;22;20367;-79
2024/01/12 05:37:44;;;;;;;18.00;10.15;;;;;;;;;;12980601;22;20362;-79
2024/01/12 05:42:47;;;;;;;18.55;11.07;;;;;;;;;;12981155;22;20375;-80
2024/01/12 05:47:50;;;;;;;20.98;11.60;;;;;;;;;;12980954;22;20679;-79
2024/01/12 05:52:52;;;;;;;19.35;11.02;;;;;;;;;;12980720;22;20449;-80
2024/01/12 05:57:56;;;;;;;19.87;11.40;;;;;;;;;;12980127;22;20432;-79
2024/01/12 06:02:58;;;;;;;17.92;11.30;;;;;;;;;;12981118;22;20396;-79
2024/01/12 06:08:00;;;;;;;17.80;10.35;;;;;;;;;;12979347;22;20421;-80
2024/01/12 06:13:04;;;;;;;16.83;9.87;;;;;;;;;;12977780;22;20783;-80
2024/01/12 06:18:07;;;;;;;16.77;10.10;;;;;;;;;;12980743;22;20363;-79
2024/01/12 06:23:09;;;;;;;18.17;10.00;;;;;;;;;;12979423;22;20374;-78
2024/01/12 06:28:13;;;;;;;16.25;9.35;;;;;;;;;;12977557;22;20370;-80
2024/01/12 06:33:15;;;;;;;16.60;9.75;;;;;;;;;;12974349;22;20835;-79
2024/01/12 06:38:18;;;;;;;18.70;11.00;;;;;;;;;;12977358;22;20358;-81
2024/01/12 06:43:21;;;;;;;18.33;10.98;;;;;;;;;;12977769;22;20363;-79
2024/01/12 06:48:24;;;;;;;19.65;11.05;;;;;;;;;;12962600;22;20443;-81
2024/01/12 06:53:26;;;;;;;24.17;12.43;;;;;;;;;;12973518;22;20535;-81
2024/01/12 06:58:30;;;;;;;27.92;13.75;;;;;;;;;;12970418;22;20375;-80
2024/01/12 07:03:32;;;;;;;125.03;52.25;;;;;;;;;;12973870;22;20371;-81
2024/01/12 07:08:34;;;;;;;27.40;14.77;;;;;;;;;;12973493;22;20935;-81
2024/01/12 07:13:38;;;;;;;25.55;14.68;;;;;;;;;;12977357;22;20549;-82
2024/01/12 07:18:42;;;;;;;27.05;13.35;;;;;;;;;;12971116;22;20439;-82
2024/01/12 07:23:44;;;;;;;20.42;11.65;;;;;;;;;;12976963;22;20740;-82
2024/01/12 07:28:48;;;;;;;20.43;11.30;;;;;;;;;;12978781;22;20414;-83
2024/01/12 07:33:50;;;;;;;21.13;11.27;;;;;;;;;;12978133;22;20421;-83
2024/01/12 07:38:52;;;;;;;17.33;10.70;;;;;;;;;;12978842;22;20363;-81
2024/01/12 07:43:56;;;;;;;17.43;9.53;;;;;;;;;;12978260;22;20363;-81
2024/01/12 07:48:59;;;;;;;18.97;10.73;;;;;;;;;;12978320;22;20706;-82
2024/01/12 07:54:01;;;;;;;17.13;10.00;;;;;;;;;;12977459;22;20363;-82
2024/01/12 07:59:05;;;;;;;17.95;10.43;;;;;;;;;;12977713;22;20362;-83
2024/01/12 08:04:08;;;;;;;16.15;10.32;;;;;;;;;;12978896;22;20834;-82
2024/01/12 08:09:13;;;;;;;22.67;10.77;;;;;;;;;;12979665;22;20366;-82
2024/01/12 08:14:16;;;;;;;21.15;11.30;;;;;;;;;;12978717;22;20367;-81
2024/01/12 08:19:19;;;;;;;21.80;12.40;;;;;;;;;;12918955;22;20732;-84
2024/01/12 08:24:21;;;;;;;18.83;10.65;;;;;;;;;;12906506;22;20438;-82
2024/01/12 08:29:25;;;;;;;20.48;11.02;;;;;;;;;;12912581;22;20360;-84
2024/01/12 08:34:27;;;;;;;17.80;10.07;;;;;;;;;;12909823;23;20406;-84
2024/01/12 08:39:29;;;;;;;20.13;10.20;;;;;;;;;;12912886;22;20368;-85
2024/01/12 08:44:33;;;;;;;16.50;9.70;;;;;;;;;;12908983;22;20430;-85
2024/01/12 08:49:35;;;;;;;14.48;8.98;;;;;;;;;;12908725;23;20816;-85
2024/01/12 08:54:38;;;;;;;15.82;9.60;;;;;;;;;;12904808;22;20368;-85
2024/01/12 08:59:42;;;;;;;15.87;9.00;;;;;;;;;;12912386;22;20438;-85
2024/01/12 09:04:44;;;;;;;17.93;8.60;;;;;;;;;;12916926;22;20376;-85
2024/01/12 09:09:46;;;;;;;12.88;7.85;;;;;;;;;;12918929;22;20384;-85
2024/01/12 09:14:50;;;;;;;12.80;8.43;;;;;;;;;;12920797;22;20364;-83
2024/01/12 09:19:52;;;;;;;14.32;8.20;;;;;;;;;;12916956;22;20445;-85
2024/01/12 09:24:55;;;;;;;15.97;8.90;;;;;;;;;;12916384;22;20376;-85
2024/01/12 09:29:59;;;;;;;17.48;9.25;;;;;;;;;;12916504;23;20732;-84
2024/01/12 09:35:01;;;;;;;16.90;9.20;;;;;;;;;;12915977;23;20434;-85
2024/01/12 09:40:04;;;;;;;16.13;9.80;;;;;;;;;;12915659;22;20513;-84
2024/01/12 09:45:12;;;;;;;14.82;7.70;;;;;;;;;;12914868;22;20384;-85
2024/01/12 09:50:14;;;;;;;13.45;7.93;;;;;;;;;;12937560;23;20360;-85
2024/01/12 09:55:17;;;;;;;15.52;8.68;;;;;;;;;;12915349;22;20376;-84
2024/01/12 10:00:24;;;;;;;14.27;9.20;;;;;;;;;;12913637;22;20432;-82
2024/01/12 10:05:26;;;;;;;14.00;9.20;;;;;;;;;;12910316;22;20455;-83
2024/01/12 10:10:28;;;;;;;17.95;9.85;;;;;;;;;;12909172;22;20470;-82
2024/01/12 10:15:39;;;;;;;23.92;11.50;;;;;;;;;;12910786;22;20406;-83
2024/01/12 10:20:42;;;;;;;14.75;8.65;;;;;;;;;;12912393;22;20448;-82
2024/01/12 10:25:44;;;;;;;15.32;9.07;;;;;;;;;;12932103;23;20385;-84
2024/01/12 10:30:48;;;;;;;17.20;10.60;;;;;;;;;;12912813;22;20409;-81
2024/01/12 10:35:59;;;;;;;13.68;7.75;;;;;;;;;;12932450;23;20408;-83
2024/01/12 10:41:05;;;;;;;15.55;8.48;;;;;;;;;;12911363;22;20595;-82
2024/01/12 10:46:12;;;;;;;12.00;7.68;;;;;;;;;;12912683;22;20967;-82
2024/01/12 10:51:15;;;;;;;10.45;6.80;;;;;;;;;;12913390;22;20453;-82
2024/01/12 10:56:20;;;;;;;11.98;7.78;;;;;;;;;;12934021;23;20422;-84
2024/01/12 11:01:24;;;;;;;13.90;8.05;;;;;;;;;;12931330;23;20420;-83
2024/01/12 11:06:30;;;;;;;10.93;7.75;;;;;;;;;;12910130;22;20462;-83
2024/01/12 11:11:41;;;;;;;11.10;6.67;;;;;;;;;;12933526;23;20360;-84
2024/01/12 11:16:46;;;;;;;11.87;7.00;;;;;;;;;;12910826;22;20969;-85
2024/01/12 11:21:48;;;;;;;11.40;6.30;;;;;;;;;;12912785;22;20470;-82
2024/01/12 11:26:52;;;;;;;10.50;7.00;;;;;;;;;;12911186;22;20736;-82
2024/01/12 11:31:55;;;;;;;11.27;6.57;;;;;;;;;;12911534;22;20368;-82
2024/01/12 11:37:01;;;;;;;12.52;7.63;;;;;;;;;;12910689;23;21465;-82
2024/01/12 11:42:05;;;;;;;11.52;7.25;;;;;;;;;;12912187;22;20445;-81
2024/01/12 11:47:09;;;;;;;12.48;7.30;;;;;;;;;;12910060;22;20485;-81
2024/01/12 11:52:11;;;;;;;9.82;6.63;;;;;;;;;;12914471;22;20820;-82
2024/01/12 11:57:14;;;;;;;8.55;6.13;;;;;;;;;;12911984;22;20399;-85
2024/01/12 12:02:17;;;;;;;7.88;5.80;;;;;;;;;;12933351;23;20437;-83
2024/01/12 12:07:20;;;;;;;10.50;5.85;;;;;;;;;;12914205;22;20386;-83
2024/01/12 12:12:22;;;;;;;10.55;6.97;;;;;;;;;;12934849;23;20372;-83
2024/01/12 12:17:28;;;;;;;9.70;5.60;;;;;;;;;;12908604;22;20398;-82
2024/01/12 12:22:31;;;;;;;9.43;5.13;;;;;;;;;;12905453;22;20380;-83
2024/01/12 12:27:34;;;;;;;20.10;12.57;;;;;;;;;;12906379;22;20461;-82
2024/01/12 12:32:38;;;;;;;17.80;12.40;;;;;;;;;;12898511;22;20384;-82
2024/01/12 12:37:41;;;;;;;7.60;5.22;;;;;;;;;;12900624;22;20840;-83
2024/01/12 12:42:45;;;;;;;9.63;5.25;;;;;;;;;;12903000;22;20466;-82
2024/01/12 12:47:49;;;;;;;7.63;5.77;;;;;;;;;;12902507;22;20441;-83
2024/01/12 12:52:52;;;;;;;9.37;4.90;;;;;;;;;;12904442;22;20881;-82
2024/01/12 12:57:55;;;;;;;7.18;4.40;;;;;;;;;;12909649;22;20368;-82
2024/01/12 13:02:58;;;;;;;5.80;3.77;;;;;;;;;;12909751;22;20368;-82
2024/01/12 13:08:01;;;;;;;6.72;3.63;;;;;;;;;;12911288;22;20388;-81
2024/01/12 13:13:03;;;;;;;5.03;3.30;;;;;;;;;;12911753;22;20376;-82
2024/01/12 13:18:08;;;;;;;4.70;3.10;;;;;;;;;;12910736;22;20357;-82
2024/01/12 13:23:10;;;;;;;4.50;2.97;;;;;;;;;;12922076;23;20372;-82
2024/01/12 13:28:13;;;;;;;5.17;3.43;;;;;;;;;;12911967;22;20376;-82
2024/01/12 13:33:17;;;;;;;6.53;3.88;;;;;;;;;;12911684;22;20372;-80
2024/01/12 13:38:19;;;;;;;7.13;3.73;;;;;;;;;;12927153;23;20943;-82
2024/01/12 13:43:21;;;;;;;6.27;3.90;;;;;;;;;;12910696;22;20427;-81
2024/01/12 13:48:27;;;;;;;7.68;3.63;;;;;;;;;;12908485;22;20446;-82
2024/01/12 13:53:30;;;;;;;6.40;3.57;;;;;;;;;;12913401;22;20376;-82
2024/01/12 13:58:33;;;;;;;8.02;4.15;;;;;;;;;;12913484;22;20377;-82
2024/01/12 14:03:36;;;;;;;8.60;4.00;;;;;;;;;;12913207;22;20364;-80
2024/01/12 14:08:39;;;;;;;6.05;3.75;;;;;;;;;;12935153;23;20376;-82
2024/01/12 14:13:42;;;;;;;6.53;4.03;;;;;;;;;;12934680;23;20488;-82
2024/01/12 14:18:46;;;;;;;7.78;4.53;;;;;;;;;;12910673;22;20430;-82
2024/01/12 14:23:48;;;;;;;9.88;5.05;;;;;;;;;;12913264;22;20430;-82
2024/01/12 14:28:51;;;;;;;7.65;4.70;;;;;;;;;;12933946;23;20384;-81
2024/01/12 14:33:56;;;;;;;11.23;5.40;;;;;;;;;;12911474;22;20368;-82
2024/01/12 14:38:58;;;;;;;9.48;5.72;;;;;;;;;;12913214;22;20438;-82
2024/01/12 14:44:00;;;;;;;8.40;4.57;;;;;;;;;;12912929;22;20399;-82
2024/01/12 14:49:04;;;;;;;8.45;5.25;;;;;;;;;;12911621;22;20389;-82
2024/01/12 14:54:07;;;;;;;7.88;3.92;;;;;;;;;;12902516;22;20376;-82
2024/01/12 14:59:09;;;;;;;5.93;3.60;;;;;;;;;;12902762;22;20422;-82
2024/01/12 15:04:14;;;;;;;8.33;3.80;;;;;;;;;;12900849;22;20693;-80
2024/01/12 15:09:19;;;;;;;7.13;3.78;;;;;;;;;;12904645;22;20438;-81
2024/01/12 15:14:21;;;;;;;7.63;4.00;;;;;;;;;;12905223;23;20418;-82
2024/01/12 15:19:26;;;;;;;8.18;4.10;;;;;;;;;;12905808;22;20376;-81
2024/01/12 15:24:28;;;;;;;7.82;4.30;;;;;;;;;;12901045;22;20740;-81
2024/01/12 15:29:30;;;;;;;7.35;4.45;;;;;;;;;;12903714;22;20732;-81
2024/01/12 15:34:34;;;;;;;8.77;5.40;;;;;;;;;;12906299;22;20438;-80
2024/01/12 15:39:38;;;;;;;8.10;5.10;;;;;;;;;;12911119;22;20372;-82
2024/01/12 15:44:40;;;;;;;9.43;5.07;;;;;;;;;;12908773;22;20356;-81
2024/01/12 15:49:44;;;;;;;9.52;5.47;;;;;;;;;;12906853;22;20388;-83
2024/01/12 15:54:46;;;;;;;11.82;6.10;;;;;;;;;;12926947;23;20437;-83
2024/01/12 15:59:49;;;;;;;10.38;5.82;;;;;;;;;;12895775;22;20368;-82
2024/01/12 16:04:52;;;;;;;10.60;6.20;;;;;;;;;;12889570;22;20442;-82
2024/01/12 16:09:55;;;;;;;13.88;6.60;;;;;;;;;;12884007;22;20811;-81
2024/01/12 16:14:57;;;;;;;12.20;6.83;;;;;;;;;;12874937;22;20886;-83
2024/01/12 16:20:01;;;;;;;11.80;7.60;;;;;;;;;;12888308;22;20449;-82
2024/01/12 16:25:04;;;;;;;16.10;8.35;;;;;;;;;;12882176;22;20376;-82
2024/01/12 16:30:07;;;;;;;15.75;9.10;;;;;;;;;;12883969;22;20712;-83
2024/01/12 16:35:12;;;;;;;15.23;9.13;;;;;;;;;;12879412;22;20380;-83
2024/01/12 16:40:15;;;;;;;14.38;9.20;;;;;;;;;;12891916;22;20380;-83
2024/01/12 16:45:17;;;;;;;16.60;8.13;;;;;;;;;;12881190;22;21109;-83
2024/01/12 16:50:21;;;;;;;17.80;8.90;;;;;;;;;;12888190;22;20993;-82
2024/01/12 16:55:23;;;;;;;15.20;8.63;;;;;;;;;;12905738;22;20470;-82
2024/01/12 17:00:26;;;;;;;15.15;8.10;;;;;;;;;;12901750;22;20975;-82
2024/01/12 17:05:29;;;;;;;14.52;7.95;;;;;;;;;;12903187;22;20365;-82
2024/01/12 17:10:32;;;;;;;15.40;9.18;;;;;;;;;;12901252;22;20392;-82
2024/01/12 17:15:34;;;;;;;15.52;9.23;;;;;;;;;;12904341;22;20446;-83
2024/01/12 17:20:38;;;;;;;14.57;9.33;;;;;;;;;;12897062;22;20937;-82
2024/01/12 17:25:40;;;;;;;16.85;9.35;;;;;;;;;;12904127;22;20423;-83
2024/01/12 17:30:42;;;;;;;17.02;10.40;;;;;;;;;;12902959;22;20720;-81
2024/01/12 17:35:47;;;;;;;19.23;10.80;;;;;;;;;;12904458;22;20389;-82
2024/01/12 17:40:49;;;;;;;21.90;11.10;;;;;;;;;;12904527;22;20383;-83
2024/01/12 17:45:53;;;;;;;19.60;12.20;;;;;;;;;;12904875;22;20435;-82
2024/01/12 17:50:56;;;;;;;23.70;12.68;;;;;;;;;;12911718;22;20424;-82
2024/01/12 17:55:59;;;;;;;23.17;12.87;;;;;;;;;;12913912;22;20416;-82
2024/01/12 18:01:01;;;;;;;22.67;12.05;;;;;;;;;;12910889;22;20369;-82
2024/01/12 18:06:05;;;;;;;21.37;12.53;;;;;;;;;;12905756;22;20411;-81
2024/01/12 18:11:08;;;;;;;22.43;13.07;;;;;;;;;;12903422;22;20431;-82
2024/01/12 18:16:10;;;;;;;27.63;15.65;;;;;;;;;;12903320;22;20446;-82
2024/01/12 18:21:14;;;;;;;22.92;13.75;;;;;;;;;;12900731;22;20852;-82
2024/01/12 18:26:16;;;;;;;24.60;13.90;;;;;;;;;;12898776;22;20872;-80
2024/01/12 18:31:19;;;;;;;22.00;13.20;;;;;;;;;;12889794;22;20392;-82
2024/01/12 18:36:23;;;;;;;25.17;12.48;;;;;;;;;;12895261;22;20414;-82
2024/01/12 18:41:25;;;;;;;20.50;12.17;;;;;;;;;;12889100;22;20428;-82
2024/01/12 18:46:28;;;;;;;23.42;13.60;;;;;;;;;;12905516;22;21114;-86
2024/01/12 18:51:32;;;;;;;20.40;12.38;;;;;;;;;;12884405;22;20376;-81
2024/01/12 18:56:34;;;;;;;23.88;14.73;;;;;;;;;;12910557;23;20922;-80
2024/01/12 19:01:37;;;;;;;22.95;14.18;;;;;;;;;;12886682;22;20418;-79
2024/01/12 19:06:41;;;;;;;21.50;12.73;;;;;;;;;;12892215;22;20768;-80
2024/01/12 19:11:43;;;;;;;21.85;13.27;;;;;;;;;;12871529;22;20412;-80
2024/01/12 19:16:45;;;;;;;22.83;12.85;;;;;;;;;;12886419;22;20384;-80
2024/01/12 19:21:49;;;;;;;26.52;14.52;;;;;;;;;;12878198;22;20453;-81
2024/01/12 19:26:51;;;;;;;24.05;14.35;;;;;;;;;;12879271;22;20380;-80
2024/01/12 19:31:54;;;;;;;24.50;13.07;;;;;;;;;;12875015;22;20450;-80
2024/01/12 19:36:57;;;;;;;29.53;14.90;;;;;;;;;;12881229;22;20384;-80
2024/01/12 19:42:00;;;;;;;25.08;13.45;;;;;;;;;;12877246;22;20388;-80
2024/01/12 19:47:02;;;;;;;24.57;13.97;;;;;;;;;;12881697;22;20455;-81
2024/01/12 19:52:07;;;;;;;29.17;16.20;;;;;;;;;;12877065;22;20388;-80
2024/01/12 19:57:10;;;;;;;32.23;16.60;;;;;;;;;;12878509;22;20372;-82
2024/01/12 20:02:12;;;;;;;35.95;17.58;;;;;;;;;;12862146;22;20412;-81
2024/01/12 20:07:16;;;;;;;34.83;18.25;;;;;;;;;;12867155;22;20513;-82
2024/01/12 20:12:19;;;;;;;24.33;14.55;;;;;;;;;;12888249;22;20388;-82
2024/01/12 20:17:21;;;;;;;28.10;15.87;;;;;;;;;;12873187;22;20388;-82
2024/01/12 20:22:25;;;;;;;29.20;14.23;;;;;;;;;;12872645;22;20384;-82
2024/01/12 20:27:27;;;;;;;23.73;15.10;;;;;;;;;;12898750;22;20372;-83
2024/01/12 20:32:30;;;;;;;23.92;14.75;;;;;;;;;;12887014;22;20498;-82
2024/01/12 20:37:34;;;;;;;26.13;13.70;;;;;;;;;;12870135;22;20380;-82
2024/01/12 20:42:36;;;;;;;21.67;12.63;;;;;;;;;;12876531;22;20580;-82
2024/01/12 20:47:39;;;;;;;20.57;12.80;;;;;;;;;;12911521;22;20479;-83
2024/01/12 20:52:42;;;;;;;19.23;12.20;;;;;;;;;;12896668;22;20420;-83
2024/01/12 20:57:46;;;;;;;24.73;12.87;;;;;;;;;;12882917;22;20384;-82
2024/01/12 21:02:48;;;;;;;24.00;13.35;;;;;;;;;;12890091;22;20883;-83
2024/01/12 21:07:52;;;;;;;19.95;12.32;;;;;;;;;;12906819;22;20380;-83
2024/01/12 21:12:54;;;;;;;25.17;13.18;;;;;;;;;;12901947;22;20406;-83
2024/01/12 21:17:56;;;;;;;20.67;12.27;;;;;;;;;;12910030;22;20542;-86
2024/01/12 21:23:00;;;;;;;23.42;12.90;;;;;;;;;;12915356;22;20755;-87
2024/01/12 21:28:03;;;;;;;27.42;15.32;;;;;;;;;;12907695;22;20435;-87
2024/01/12 21:33:05;;;;;;;32.25;16.63;;;;;;;;;;12913631;22;20372;-88
2024/01/12 21:38:09;;;;;;;28.58;16.73;;;;;;;;;;12909678;22;20445;-87
2024/01/12 21:43:12;;;;;;;27.45;15.30;;;;;;;;;;12927975;22;20376;-87
2024/01/12 21:48:14;;;;;;;29.40;16.13;;;;;;;;;;12927212;23;20909;-88
2024/01/12 21:53:18;;;;;;;26.25;15.30;;;;;;;;;;12911470;22;20430;-87
2024/01/12 21:58:20;;;;;;;28.07;16.10;;;;;;;;;;12904353;22;20376;-87
2024/01/12 22:03:22;;;;;;;26.83;15.25;;;;;;;;;;12897305;22;20384;-87
2024/01/12 22:08:26;;;;;;;31.55;16.48;;;;;;;;;;12896966;22;20384;-86
2024/01/12 22:13:28;;;;;;;26.55;14.52;;;;;;;;;;12909497;22;20410;-88
2024/01/12 22:18:31;;;;;;;25.80;15.47;;;;;;;;;;12914787;22;20712;-88
2024/01/12 22:23:35;;;;;;;26.50;14.57;;;;;;;;;;12908109;22;20445;-88
2024/01/12 22:28:37;;;;;;;27.95;14.75;;;;;;;;;;12912387;22;20376;-88
2024/01/12 22:33:39;;;;;;;25.17;14.20;;;;;;;;;;12907676;22;20454;-87
2024/01/12 22:38:43;;;;;;;24.92;14.82;;;;;;;;;;12912316;22;20437;-86
2024/01/12 22:43:45;;;;;;;27.93;15.60;;;;;;;;;;12917057;22;20659;-88
2024/01/12 22:48:47;;;;;;;27.73;14.85;;;;;;;;;;12917146;22;20376;-87
2024/01/12 22:53:51;;;;;;;27.83;15.38;;;;;;;;;;12915915;22;20372;-87
2024/01/12 22:58:54;;;;;;;25.38;14.30;;;;;;;;;;12917249;22;20824;-88
2024/01/12 23:03:56;;;;;;;25.63;14.13;;;;;;;;;;12915926;22;20372;-88
2024/01/12 23:09:00;;;;;;;25.30;14.95;;;;;;;;;;12915154;22;20863;-88
2024/01/12 23:14:02;;;;;;;22.17;13.93;;;;;;;;;;12912135;22;20918;-88
2024/01/12 23:19:04;;;;;;;30.73;16.83;;;;;;;;;;12909558;22;21186;-88
2024/01/12 23:24:08;;;;;;;26.20;16.17;;;;;;;;;;12911495;22;20368;-87
2024/01/12 23:29:10;;;;;;;28.90;16.25;;;;;;;;;;12653162;22;20910;-88
2024/01/12 23:34:13;;;;;;;30.77;16.57;;;;;;;;;;12923333;23;20368;-88
2024/01/12 23:39:16;;;;;;;26.45;15.07;;;;;;;;;;12941550;23;20360;-88
2024/01/12 23:44:18;;;;;;;30.70;16.20;;;;;;;;;;12920700;22;20372;-88
2024/01/12 23:49:21;;;;;;;28.88;15.82;;;;;;;;;;12920132;22;20446;-88
2024/01/12 23:54:25;;;;;;;26.23;16.27;;;;;;;;;;12923871;22;20372;-88
2024/01/12 23:59:28;;;;;;;30.48;16.20;;;;;;;;;;12920642;22;20364;-88
